sensor_id;sensor_type;location;lat;lon;timestamp;temperature;humidity
8557;DHT22;4316;53.840;10.762;2022-12-24T00:02:17;5.10;99.90
8557;DHT22;4316;53.840;10.762;2022-12-24T00:04:43;5.10;99.90
8557;DHT22;4316;53.840;10.762;2022-12-24T00:07:09;5.10;99.90
8557;DHT22;4316;53.840;10.762;2022-12-24T00:09:34;5.00;99.90
8557;DHT22;4316;53.840;10.762;2022-12-24T00:12:00;5.10;99.90
8557;DHT22;4316;53.840;10.762;2022-12-24T00:14:26;5.00;99.90
8557;DHT22;4316;53.840;10.762;2022-12-24T00:16:51;5.00;99.90
8557;DHT22;4316;53.840;10.762;2022-12-24T00:19:17;5.00;99.90
8557;DHT22;4316;53.840;10.762;2022-12-24T00:21:43;5.00;99.90
8557;DHT22;4316;53.840;10.762;2022-12-24T00:24:09;5.10;99.90
8557;DHT22;4316;53.840;10.762;2022-12-24T00:26:35;5.00;99.90
8557;DHT22;4316;53.840;10.762;2022-12-24T00:29:01;5.00;99.90
8557;DHT22;4316;53.840;10.762;2022-12-24T00:31:27;5.00;99.90
8557;DHT22;4316;53.840;10.762;2022-12-24T00:33:52;5.00;99.90
8557;DHT22;4316;53.840;10.762;2022-12-24T00:36:18;5.00;99.90
8557;DHT22;4316;53.840;10.762;2022-12-24T00:38:45;5.00;99.90
8557;DHT22;4316;53.840;10.762;2022-12-24T00:41:11;4.90;99.90
8557;DHT22;4316;53.840;10.762;2022-12-24T00:44:04;5.00;99.90
8557;DHT22;4316;53.840;10.762;2022-12-24T00:46:32;5.00;99.90
8557;DHT22;4316;53.840;10.762;2022-12-24T00:48:59;5.00;99.90
8557;DHT22;4316;53.840;10.762;2022-12-24T00:51:25;5.00;99.90
8557;DHT22;4316;53.840;10.762;2022-12-24T00:53:51;5.00;99.90
8557;DHT22;4316;53.840;10.762;2022-12-24T00:56:18;4.90;99.90
8557;DHT22;4316;53.840;10.762;2022-12-24T00:58:44;4.80;99.90
8557;DHT22;4316;53.840;10.762;2022-12-24T01:01:11;4.90;99.90
8557;DHT22;4316;53.840;10.762;2022-12-24T01:03:37;4.80;99.90
8557;DHT22;4316;53.840;10.762;2022-12-24T01:06:17;4.80;99.90
8557;DHT22;4316;53.840;10.762;2022-12-24T01:08:43;4.80;99.90
8557;DHT22;4316;53.840;10.762;2022-12-24T01:11:11;4.90;99.90
8557;DHT22;4316;53.840;10.762;2022-12-24T01:13:39;4.90;99.90
8557;DHT22;4316;53.840;10.762;2022-12-24T01:16:14;4.90;99.90
8557;DHT22;4316;53.840;10.762;2022-12-24T01:18:40;4.90;99.90
8557;DHT22;4316;53.840;10.762;2022-12-24T01:21:06;4.90;99.90
8557;DHT22;4316;53.840;10.762;2022-12-24T01:23:31;4.90;99.90
8557;DHT22;4316;53.840;10.762;2022-12-24T01:26:01;4.90;99.90
8557;DHT22;4316;53.840;10.762;2022-12-24T01:28:27;4.80;99.90
8557;DHT22;4316;53.840;10.762;2022-12-24T01:30:53;4.80;99.90
8557;DHT22;4316;53.840;10.762;2022-12-24T01:33:19;4.90;99.90
8557;DHT22;4316;53.840;10.762;2022-12-24T01:35:45;4.90;99.90
8557;DHT22;4316;53.840;10.762;2022-12-24T01:38:13;4.80;99.90
8557;DHT22;4316;53.840;10.762;2022-12-24T01:40:41;4.80;99.90
8557;DHT22;4316;53.840;10.762;2022-12-24T01:43:29;4.80;99.90
8557;DHT22;4316;53.840;10.762;2022-12-24T01:45:58;4.70;99.90
8557;DHT22;4316;53.840;10.762;2022-12-24T01:48:44;4.70;99.90
8557;DHT22;4316;53.840;10.762;2022-12-24T01:51:27;4.70;99.90
8557;DHT22;4316;53.840;10.762;2022-12-24T01:54:02;4.70;99.90
8557;DHT22;4316;53.840;10.762;2022-12-24T01:56:30;4.70;99.90
8557;DHT22;4316;53.840;10.762;2022-12-24T01:59:03;4.70;99.90
8557;DHT22;4316;53.840;10.762;2022-12-24T02:01:30;4.70;99.90
8557;DHT22;4316;53.840;10.762;2022-12-24T02:03:56;4.60;99.90
8557;DHT22;4316;53.840;10.762;2022-12-24T02:06:22;4.70;99.90
8557;DHT22;4316;53.840;10.762;2022-12-24T02:08:48;4.60;99.90
8557;DHT22;4316;53.840;10.762;2022-12-24T02:11:19;4.70;99.90
8557;DHT22;4316;53.840;10.762;2022-12-24T02:13:55;4.70;99.90
8557;DHT22;4316;53.840;10.762;2022-12-24T02:16:26;4.70;99.90
8557;DHT22;4316;53.840;10.762;2022-12-24T02:24:23;4.70;99.90
8557;DHT22;4316;53.840;10.762;2022-12-24T02:32:14;4.70;99.90
8557;DHT22;4316;53.840;10.762;2022-12-24T02:34:49;4.70;99.90
8557;DHT22;4316;53.840;10.762;2022-12-24T02:37:21;4.70;99.90
8557;DHT22;4316;53.840;10.762;2022-12-24T02:39:54;4.70;99.90
8557;DHT22;4316;53.840;10.762;2022-12-24T02:42:24;4.70;99.90
8557;DHT22;4316;53.840;10.762;2022-12-24T02:45:10;4.60;99.90
8557;DHT22;4316;53.840;10.762;2022-12-24T02:47:38;4.60;99.90
8557;DHT22;4316;53.840;10.762;2022-12-24T02:50:07;4.60;99.90
8557;DHT22;4316;53.840;10.762;2022-12-24T02:52:36;4.60;99.90
8557;DHT22;4316;53.840;10.762;2022-12-24T02:55:25;4.60;99.90
8557;DHT22;4316;53.840;10.762;2022-12-24T02:58:20;4.60;99.90
8557;DHT22;4316;53.840;10.762;2022-12-24T03:04:04;4.70;99.90
8557;DHT22;4316;53.840;10.762;2022-12-24T03:09:18;4.70;99.90
8557;DHT22;4316;53.840;10.762;2022-12-24T03:11:56;4.70;99.90
8557;DHT22;4316;53.840;10.762;2022-12-24T03:14:24;4.70;99.90
8557;DHT22;4316;53.840;10.762;2022-12-24T03:16:51;4.70;99.90
8557;DHT22;4316;53.840;10.762;2022-12-24T03:19:17;4.70;99.90
8557;DHT22;4316;53.840;10.762;2022-12-24T03:21:44;4.70;99.90
8557;DHT22;4316;53.840;10.762;2022-12-24T03:24:11;4.70;99.90
8557;DHT22;4316;53.840;10.762;2022-12-24T03:26:37;4.70;99.90
8557;DHT22;4316;53.840;10.762;2022-12-24T03:29:06;4.80;99.90
8557;DHT22;4316;53.840;10.762;2022-12-24T03:31:40;4.70;99.90
8557;DHT22;4316;53.840;10.762;2022-12-24T03:34:06;4.80;99.90
8557;DHT22;4316;53.840;10.762;2022-12-24T03:36:32;4.80;99.90
8557;DHT22;4316;53.840;10.762;2022-12-24T03:38:57;4.80;99.90
8557;DHT22;4316;53.840;10.762;2022-12-24T03:41:23;4.80;99.90
8557;DHT22;4316;53.840;10.762;2022-12-24T03:43:49;4.70;99.90
8557;DHT22;4316;53.840;10.762;2022-12-24T03:46:15;4.70;99.90
8557;DHT22;4316;53.840;10.762;2022-12-24T03:48:40;4.70;99.90
8557;DHT22;4316;53.840;10.762;2022-12-24T03:51:22;4.60;99.90
8557;DHT22;4316;53.840;10.762;2022-12-24T03:53:48;4.70;99.90
8557;DHT22;4316;53.840;10.762;2022-12-24T03:56:16;4.70;99.90
8557;DHT22;4316;53.840;10.762;2022-12-24T03:58:41;4.70;99.90
8557;DHT22;4316;53.840;10.762;2022-12-24T04:01:07;4.80;99.90
8557;DHT22;4316;53.840;10.762;2022-12-24T04:03:33;4.80;99.90
8557;DHT22;4316;53.840;10.762;2022-12-24T04:06:04;4.70;99.90
8557;DHT22;4316;53.840;10.762;2022-12-24T04:08:30;4.70;99.90
8557;DHT22;4316;53.840;10.762;2022-12-24T04:10:56;4.70;99.90
8557;DHT22;4316;53.840;10.762;2022-12-24T04:13:22;4.70;99.90
8557;DHT22;4316;53.840;10.762;2022-12-24T04:16:03;4.60;99.90
8557;DHT22;4316;53.840;10.762;2022-12-24T04:18:29;4.70;99.90
8557;DHT22;4316;53.840;10.762;2022-12-24T04:20:54;4.60;99.90
8557;DHT22;4316;53.840;10.762;2022-12-24T04:23:20;4.60;99.90
8557;DHT22;4316;53.840;10.762;2022-12-24T04:25:47;4.60;99.90
8557;DHT22;4316;53.840;10.762;2022-12-24T04:28:14;4.50;99.90
8557;DHT22;4316;53.840;10.762;2022-12-24T04:30:40;4.50;99.90
8557;DHT22;4316;53.840;10.762;2022-12-24T04:33:06;4.60;99.90
8557;DHT22;4316;53.840;10.762;2022-12-24T04:35:32;4.70;99.90
8557;DHT22;4316;53.840;10.762;2022-12-24T04:37:58;4.60;99.90
8557;DHT22;4316;53.840;10.762;2022-12-24T04:40:24;4.70;99.90
8557;DHT22;4316;53.840;10.762;2022-12-24T04:42:50;4.70;99.90
8557;DHT22;4316;53.840;10.762;2022-12-24T04:45:17;4.70;99.90
8557;DHT22;4316;53.840;10.762;2022-12-24T04:47:43;4.70;99.90
8557;DHT22;4316;53.840;10.762;2022-12-24T04:50:09;4.70;99.90
8557;DHT22;4316;53.840;10.762;2022-12-24T04:52:35;4.70;99.90
8557;DHT22;4316;53.840;10.762;2022-12-24T04:55:02;4.60;99.90
8557;DHT22;4316;53.840;10.762;2022-12-24T04:57:30;4.60;99.90
8557;DHT22;4316;53.840;10.762;2022-12-24T04:59:58;4.60;99.90
8557;DHT22;4316;53.840;10.762;2022-12-24T05:02:24;4.50;99.90
8557;DHT22;4316;53.840;10.762;2022-12-24T05:04:50;4.60;99.90
8557;DHT22;4316;53.840;10.762;2022-12-24T05:07:16;4.60;99.90
8557;DHT22;4316;53.840;10.762;2022-12-24T05:09:42;4.50;99.90
8557;DHT22;4316;53.840;10.762;2022-12-24T05:12:08;4.50;99.90
8557;DHT22;4316;53.840;10.762;2022-12-24T05:14:33;4.50;99.90
8557;DHT22;4316;53.840;10.762;2022-12-24T05:16:59;4.50;99.90
8557;DHT22;4316;53.840;10.762;2022-12-24T05:19:25;4.50;99.90
8557;DHT22;4316;53.840;10.762;2022-12-24T05:21:50;4.50;99.90
8557;DHT22;4316;53.840;10.762;2022-12-24T05:24:36;4.50;99.90
8557;DHT22;4316;53.840;10.762;2022-12-24T05:27:20;4.50;99.90
8557;DHT22;4316;53.840;10.762;2022-12-24T05:29:46;4.50;99.90
8557;DHT22;4316;53.840;10.762;2022-12-24T05:32:12;4.50;99.90
8557;DHT22;4316;53.840;10.762;2022-12-24T05:34:38;4.50;99.90
8557;DHT22;4316;53.840;10.762;2022-12-24T05:37:04;4.50;99.90
8557;DHT22;4316;53.840;10.762;2022-12-24T05:39:29;4.50;99.90
8557;DHT22;4316;53.840;10.762;2022-12-24T05:41:55;4.60;99.90
8557;DHT22;4316;53.840;10.762;2022-12-24T05:44:21;4.60;99.90
8557;DHT22;4316;53.840;10.762;2022-12-24T05:46:46;4.60;99.90
8557;DHT22;4316;53.840;10.762;2022-12-24T05:49:13;4.60;99.90
8557;DHT22;4316;53.840;10.762;2022-12-24T05:51:39;4.60;99.90
8557;DHT22;4316;53.840;10.762;2022-12-24T05:54:05;4.60;99.90
8557;DHT22;4316;53.840;10.762;2022-12-24T05:56:31;4.60;99.90
8557;DHT22;4316;53.840;10.762;2022-12-24T05:58:57;4.60;99.90
8557;DHT22;4316;53.840;10.762;2022-12-24T06:01:24;4.60;99.90
8557;DHT22;4316;53.840;10.762;2022-12-24T06:03:51;4.60;99.90
8557;DHT22;4316;53.840;10.762;2022-12-24T06:06:20;4.60;99.90
8557;DHT22;4316;53.840;10.762;2022-12-24T06:08:47;4.50;99.90
8557;DHT22;4316;53.840;10.762;2022-12-24T06:11:15;4.60;99.90
8557;DHT22;4316;53.840;10.762;2022-12-24T06:13:42;4.60;99.90
8557;DHT22;4316;53.840;10.762;2022-12-24T06:16:11;4.60;99.90
8557;DHT22;4316;53.840;10.762;2022-12-24T06:18:38;4.60;99.90
8557;DHT22;4316;53.840;10.762;2022-12-24T06:21:04;4.60;99.90
8557;DHT22;4316;53.840;10.762;2022-12-24T06:23:33;4.60;99.90
8557;DHT22;4316;53.840;10.762;2022-12-24T06:26:00;4.60;99.90
8557;DHT22;4316;53.840;10.762;2022-12-24T06:28:27;4.50;99.90
8557;DHT22;4316;53.840;10.762;2022-12-24T06:30:53;4.50;99.90
8557;DHT22;4316;53.840;10.762;2022-12-24T06:33:19;4.50;99.90
8557;DHT22;4316;53.840;10.762;2022-12-24T06:35:45;4.40;99.90
8557;DHT22;4316;53.840;10.762;2022-12-24T06:38:11;4.40;99.90
8557;DHT22;4316;53.840;10.762;2022-12-24T06:40:38;4.40;99.90
8557;DHT22;4316;53.840;10.762;2022-12-24T06:43:04;4.40;99.90
8557;DHT22;4316;53.840;10.762;2022-12-24T06:45:30;4.30;99.90
8557;DHT22;4316;53.840;10.762;2022-12-24T06:47:57;4.30;99.90
8557;DHT22;4316;53.840;10.762;2022-12-24T06:50:23;4.30;99.90
8557;DHT22;4316;53.840;10.762;2022-12-24T06:52:49;4.30;99.90
8557;DHT22;4316;53.840;10.762;2022-12-24T06:55:14;4.30;99.90
8557;DHT22;4316;53.840;10.762;2022-12-24T06:57:40;4.40;99.90
8557;DHT22;4316;53.840;10.762;2022-12-24T07:00:08;4.40;99.90
8557;DHT22;4316;53.840;10.762;2022-12-24T07:02:34;4.30;99.90
8557;DHT22;4316;53.840;10.762;2022-12-24T07:04:59;4.30;99.90
8557;DHT22;4316;53.840;10.762;2022-12-24T07:07:25;4.30;99.90
8557;DHT22;4316;53.840;10.762;2022-12-24T07:09:51;4.40;99.90
8557;DHT22;4316;53.840;10.762;2022-12-24T07:12:16;4.40;99.90
8557;DHT22;4316;53.840;10.762;2022-12-24T07:14:42;4.50;99.90
8557;DHT22;4316;53.840;10.762;2022-12-24T07:17:08;4.50;99.90
8557;DHT22;4316;53.840;10.762;2022-12-24T07:19:34;4.40;99.90
8557;DHT22;4316;53.840;10.762;2022-12-24T07:22:00;4.40;99.90
8557;DHT22;4316;53.840;10.762;2022-12-24T07:24:25;4.40;99.90
8557;DHT22;4316;53.840;10.762;2022-12-24T07:26:51;4.30;99.90
8557;DHT22;4316;53.840;10.762;2022-12-24T07:29:17;4.30;99.90
8557;DHT22;4316;53.840;10.762;2022-12-24T07:31:43;4.40;99.90
8557;DHT22;4316;53.840;10.762;2022-12-24T07:34:08;4.40;99.90
8557;DHT22;4316;53.840;10.762;2022-12-24T07:36:34;4.40;99.90
8557;DHT22;4316;53.840;10.762;2022-12-24T07:39:00;4.40;99.90
8557;DHT22;4316;53.840;10.762;2022-12-24T07:41:26;4.40;99.90
8557;DHT22;4316;53.840;10.762;2022-12-24T07:43:52;4.40;99.90
8557;DHT22;4316;53.840;10.762;2022-12-24T07:46:17;4.40;99.90
8557;DHT22;4316;53.840;10.762;2022-12-24T07:48:43;4.40;99.90
8557;DHT22;4316;53.840;10.762;2022-12-24T07:51:09;4.30;99.90
8557;DHT22;4316;53.840;10.762;2022-12-24T07:53:35;4.30;99.90
8557;DHT22;4316;53.840;10.762;2022-12-24T07:56:01;4.30;99.90
8557;DHT22;4316;53.840;10.762;2022-12-24T07:58:26;4.30;99.90
8557;DHT22;4316;53.840;10.762;2022-12-24T08:00:59;4.20;99.90
8557;DHT22;4316;53.840;10.762;2022-12-24T08:03:25;4.30;99.90
8557;DHT22;4316;53.840;10.762;2022-12-24T08:05:51;4.20;99.90
8557;DHT22;4316;53.840;10.762;2022-12-24T08:08:18;4.20;99.90
8557;DHT22;4316;53.840;10.762;2022-12-24T08:10:44;4.30;99.90
8557;DHT22;4316;53.840;10.762;2022-12-24T08:13:11;4.40;99.90
8557;DHT22;4316;53.840;10.762;2022-12-24T08:15:37;4.40;99.90
8557;DHT22;4316;53.840;10.762;2022-12-24T08:18:03;4.30;99.90
8557;DHT22;4316;53.840;10.762;2022-12-24T08:20:29;4.30;99.90
8557;DHT22;4316;53.840;10.762;2022-12-24T08:22:55;4.30;99.90
8557;DHT22;4316;53.840;10.762;2022-12-24T08:25:21;4.30;99.90
8557;DHT22;4316;53.840;10.762;2022-12-24T08:27:46;4.30;99.90
8557;DHT22;4316;53.840;10.762;2022-12-24T08:30:12;4.30;99.90
8557;DHT22;4316;53.840;10.762;2022-12-24T08:32:38;4.40;99.90
8557;DHT22;4316;53.840;10.762;2022-12-24T08:35:05;4.40;99.90
8557;DHT22;4316;53.840;10.762;2022-12-24T08:37:31;4.50;99.90
8557;DHT22;4316;53.840;10.762;2022-12-24T08:39:56;4.50;99.90
8557;DHT22;4316;53.840;10.762;2022-12-24T08:42:23;4.50;99.90
8557;DHT22;4316;53.840;10.762;2022-12-24T08:44:48;4.40;99.90
8557;DHT22;4316;53.840;10.762;2022-12-24T08:47:14;4.40;99.90
8557;DHT22;4316;53.840;10.762;2022-12-24T08:49:40;4.50;99.90
8557;DHT22;4316;53.840;10.762;2022-12-24T08:52:05;4.50;99.90
8557;DHT22;4316;53.840;10.762;2022-12-24T08:54:31;4.40;99.90
8557;DHT22;4316;53.840;10.762;2022-12-24T08:56:57;4.30;99.90
8557;DHT22;4316;53.840;10.762;2022-12-24T08:59:23;4.40;99.90
8557;DHT22;4316;53.840;10.762;2022-12-24T09:01:49;4.40;99.90
8557;DHT22;4316;53.840;10.762;2022-12-24T09:04:14;4.40;99.90
8557;DHT22;4316;53.840;10.762;2022-12-24T09:06:40;4.40;99.90
8557;DHT22;4316;53.840;10.762;2022-12-24T09:09:06;4.50;99.90
8557;DHT22;4316;53.840;10.762;2022-12-24T09:11:33;4.50;99.90
8557;DHT22;4316;53.840;10.762;2022-12-24T09:13:59;4.50;99.90
8557;DHT22;4316;53.840;10.762;2022-12-24T09:16:25;4.50;99.90
8557;DHT22;4316;53.840;10.762;2022-12-24T09:18:51;4.40;99.90
8557;DHT22;4316;53.840;10.762;2022-12-24T09:21:16;4.40;99.90
8557;DHT22;4316;53.840;10.762;2022-12-24T09:23:45;4.40;99.90
8557;DHT22;4316;53.840;10.762;2022-12-24T09:26:18;4.40;99.90
8557;DHT22;4316;53.840;10.762;2022-12-24T09:28:44;4.40;99.90
8557;DHT22;4316;53.840;10.762;2022-12-24T09:31:11;4.50;99.90
8557;DHT22;4316;53.840;10.762;2022-12-24T09:33:39;4.50;99.90
8557;DHT22;4316;53.840;10.762;2022-12-24T09:36:05;4.50;99.90
8557;DHT22;4316;53.840;10.762;2022-12-24T09:38:32;4.50;99.90
8557;DHT22;4316;53.840;10.762;2022-12-24T09:40:59;4.50;99.90
8557;DHT22;4316;53.840;10.762;2022-12-24T09:43:28;4.50;99.90
8557;DHT22;4316;53.840;10.762;2022-12-24T09:46:07;4.60;99.90
8557;DHT22;4316;53.840;10.762;2022-12-24T09:48:41;4.50;99.90
8557;DHT22;4316;53.840;10.762;2022-12-24T09:53:59;4.50;99.90
8557;DHT22;4316;53.840;10.762;2022-12-24T09:56:30;4.50;99.90
8557;DHT22;4316;53.840;10.762;2022-12-24T09:59:00;4.40;99.90
8557;DHT22;4316;53.840;10.762;2022-12-24T10:01:29;4.40;99.90
8557;DHT22;4316;53.840;10.762;2022-12-24T10:04:01;4.40;99.90
8557;DHT22;4316;53.840;10.762;2022-12-24T10:06:35;4.50;99.90
8557;DHT22;4316;53.840;10.762;2022-12-24T10:20:29;4.60;99.90
8557;DHT22;4316;53.840;10.762;2022-12-24T10:25:51;4.60;99.90
8557;DHT22;4316;53.840;10.762;2022-12-24T10:28:21;4.60;99.90
8557;DHT22;4316;53.840;10.762;2022-12-24T10:30:50;4.60;99.90
8557;DHT22;4316;53.840;10.762;2022-12-24T10:33:26;4.60;99.90
8557;DHT22;4316;53.840;10.762;2022-12-24T10:35:55;4.60;99.90
8557;DHT22;4316;53.840;10.762;2022-12-24T10:38:22;4.60;99.90
8557;DHT22;4316;53.840;10.762;2022-12-24T10:40:49;4.70;99.90
8557;DHT22;4316;53.840;10.762;2022-12-24T10:43:19;4.70;99.90
8557;DHT22;4316;53.840;10.762;2022-12-24T10:45:47;4.60;99.90
8557;DHT22;4316;53.840;10.762;2022-12-24T10:48:40;4.60;99.90
8557;DHT22;4316;53.840;10.762;2022-12-24T10:51:25;4.60;99.90
8557;DHT22;4316;53.840;10.762;2022-12-24T10:53:59;4.70;99.90
8557;DHT22;4316;53.840;10.762;2022-12-24T10:56:26;4.60;99.90
8557;DHT22;4316;53.840;10.762;2022-12-24T10:58:54;4.60;99.90
8557;DHT22;4316;53.840;10.762;2022-12-24T11:01:21;4.70;99.90
8557;DHT22;4316;53.840;10.762;2022-12-24T11:04:06;4.70;99.90
8557;DHT22;4316;53.840;10.762;2022-12-24T11:09:33;4.80;99.90
8557;DHT22;4316;53.840;10.762;2022-12-24T11:12:02;4.80;99.90
8557;DHT22;4316;53.840;10.762;2022-12-24T11:14:33;4.80;99.90
8557;DHT22;4316;53.840;10.762;2022-12-24T11:16:59;4.80;99.90
8557;DHT22;4316;53.840;10.762;2022-12-24T11:19:36;4.80;99.90
8557;DHT22;4316;53.840;10.762;2022-12-24T11:24:43;4.80;99.90
8557;DHT22;4316;53.840;10.762;2022-12-24T11:32:49;4.80;99.90
8557;DHT22;4316;53.840;10.762;2022-12-24T11:35:22;4.70;99.90
8557;DHT22;4316;53.840;10.762;2022-12-24T11:38:11;4.70;99.90
8557;DHT22;4316;53.840;10.762;2022-12-24T11:40:41;4.70;99.90
8557;DHT22;4316;53.840;10.762;2022-12-24T11:43:16;4.60;99.90
8557;DHT22;4316;53.840;10.762;2022-12-24T11:45:55;4.60;99.90
8557;DHT22;4316;53.840;10.762;2022-12-24T11:48:31;4.60;99.90
8557;DHT22;4316;53.840;10.762;2022-12-24T11:51:00;4.70;99.90
8557;DHT22;4316;53.840;10.762;2022-12-24T11:53:43;4.80;99.90
8557;DHT22;4316;53.840;10.762;2022-12-24T11:56:31;4.80;99.90
8557;DHT22;4316;53.840;10.762;2022-12-24T11:59:04;4.90;99.90
8557;DHT22;4316;53.840;10.762;2022-12-24T12:04:26;5.00;99.90
8557;DHT22;4316;53.840;10.762;2022-12-24T12:06:57;5.00;99.90
8557;DHT22;4316;53.840;10.762;2022-12-24T12:09:31;5.00;99.90
8557;DHT22;4316;53.840;10.762;2022-12-24T12:12:04;5.00;99.90
8557;DHT22;4316;53.840;10.762;2022-12-24T12:14:47;5.00;99.90
8557;DHT22;4316;53.840;10.762;2022-12-24T12:19:48;4.90;99.90
8557;DHT22;4316;53.840;10.762;2022-12-24T12:24:50;4.90;99.90
8557;DHT22;4316;53.840;10.762;2022-12-24T12:27:31;4.80;99.90
8557;DHT22;4316;53.840;10.762;2022-12-24T12:30:03;4.80;99.90
8557;DHT22;4316;53.840;10.762;2022-12-24T12:33:01;4.80;99.90
8557;DHT22;4316;53.840;10.762;2022-12-24T12:35:33;4.90;99.90
8557;DHT22;4316;53.840;10.762;2022-12-24T12:38:05;4.90;99.90
8557;DHT22;4316;53.840;10.762;2022-12-24T12:40:43;4.90;99.90
8557;DHT22;4316;53.840;10.762;2022-12-24T12:46:42;5.00;99.90
8557;DHT22;4316;53.840;10.762;2022-12-24T12:49:16;5.00;99.90
8557;DHT22;4316;53.840;10.762;2022-12-24T12:57:30;5.00;99.90
8557;DHT22;4316;53.840;10.762;2022-12-24T13:00:03;5.10;99.90
8557;DHT22;4316;53.840;10.762;2022-12-24T13:20:24;5.10;99.90
8557;DHT22;4316;53.840;10.762;2022-12-24T13:23:07;5.00;99.90
8557;DHT22;4316;53.840;10.762;2022-12-24T13:25:40;5.00;99.90
8557;DHT22;4316;53.840;10.762;2022-12-24T13:36:08;5.00;99.90
8557;DHT22;4316;53.840;10.762;2022-12-24T13:46:56;5.00;99.90
8557;DHT22;4316;53.840;10.762;2022-12-24T13:55:00;5.10;99.90
8557;DHT22;4316;53.840;10.762;2022-12-24T13:57:38;5.10;99.90
8557;DHT22;4316;53.840;10.762;2022-12-24T14:03:05;5.20;99.90
8557;DHT22;4316;53.840;10.762;2022-12-24T14:05:47;5.30;99.90
8557;DHT22;4316;53.840;10.762;2022-12-24T14:11:01;5.20;99.90
8557;DHT22;4316;53.840;10.762;2022-12-24T14:16:04;5.20;99.90
8557;DHT22;4316;53.840;10.762;2022-12-24T14:18:37;5.20;99.90
8557;DHT22;4316;53.840;10.762;2022-12-24T14:21:05;5.20;99.90
8557;DHT22;4316;53.840;10.762;2022-12-24T14:23:53;5.20;99.90
8557;DHT22;4316;53.840;10.762;2022-12-24T14:26:25;5.20;99.90
8557;DHT22;4316;53.840;10.762;2022-12-24T14:29:16;5.20;99.90
8557;DHT22;4316;53.840;10.762;2022-12-24T14:31:51;5.10;99.90
8557;DHT22;4316;53.840;10.762;2022-12-24T14:34:18;5.10;99.90
8557;DHT22;4316;53.840;10.762;2022-12-24T14:36:45;5.10;99.90
8557;DHT22;4316;53.840;10.762;2022-12-24T14:39:25;5.10;99.90
8557;DHT22;4316;53.840;10.762;2022-12-24T14:42:01;5.10;99.90
8557;DHT22;4316;53.840;10.762;2022-12-24T14:44:39;5.20;99.90
8557;DHT22;4316;53.840;10.762;2022-12-24T14:47:29;5.20;99.90
8557;DHT22;4316;53.840;10.762;2022-12-24T14:58:27;5.20;99.90
8557;DHT22;4316;53.840;10.762;2022-12-24T15:00:59;5.20;99.90
8557;DHT22;4316;53.840;10.762;2022-12-24T15:03:28;5.20;99.90
8557;DHT22;4316;53.840;10.762;2022-12-24T15:06:03;5.20;99.90
8557;DHT22;4316;53.840;10.762;2022-12-24T15:08:38;5.20;99.90
8557;DHT22;4316;53.840;10.762;2022-12-24T15:11:07;5.20;99.90
8557;DHT22;4316;53.840;10.762;2022-12-24T15:13:39;5.20;99.90
8557;DHT22;4316;53.840;10.762;2022-12-24T15:16:17;5.10;99.90
8557;DHT22;4316;53.840;10.762;2022-12-24T15:19:02;5.20;99.90
8557;DHT22;4316;53.840;10.762;2022-12-24T15:21:31;5.20;99.90
8557;DHT22;4316;53.840;10.762;2022-12-24T15:23:58;5.20;99.90
8557;DHT22;4316;53.840;10.762;2022-12-24T15:26:31;5.20;99.90
8557;DHT22;4316;53.840;10.762;2022-12-24T15:28:58;5.20;99.90
8557;DHT22;4316;53.840;10.762;2022-12-24T15:31:26;5.10;99.90
8557;DHT22;4316;53.840;10.762;2022-12-24T15:33:54;5.20;99.90
8557;DHT22;4316;53.840;10.762;2022-12-24T15:36:33;5.40;99.90
8557;DHT22;4316;53.840;10.762;2022-12-24T15:39:03;5.30;99.90
8557;DHT22;4316;53.840;10.762;2022-12-24T15:41:40;5.30;99.90
8557;DHT22;4316;53.840;10.762;2022-12-24T15:44:34;5.30;99.90
8557;DHT22;4316;53.840;10.762;2022-12-24T15:47:03;5.20;99.90
8557;DHT22;4316;53.840;10.762;2022-12-24T15:49:31;5.10;99.90
8557;DHT22;4316;53.840;10.762;2022-12-24T15:52:09;5.20;99.90
8557;DHT22;4316;53.840;10.762;2022-12-24T15:54:35;5.20;99.90
8557;DHT22;4316;53.840;10.762;2022-12-24T15:57:31;5.20;99.90
8557;DHT22;4316;53.840;10.762;2022-12-24T15:59:59;5.30;99.90
8557;DHT22;4316;53.840;10.762;2022-12-24T16:02:41;5.30;99.90
8557;DHT22;4316;53.840;10.762;2022-12-24T16:05:31;5.20;99.90
8557;DHT22;4316;53.840;10.762;2022-12-24T16:13:21;5.10;99.90
8557;DHT22;4316;53.840;10.762;2022-12-24T16:16:06;5.10;99.90
8557;DHT22;4316;53.840;10.762;2022-12-24T16:18:33;5.10;99.90
8557;DHT22;4316;53.840;10.762;2022-12-24T16:21:00;5.10;99.90
8557;DHT22;4316;53.840;10.762;2022-12-24T16:23:38;5.10;99.90
8557;DHT22;4316;53.840;10.762;2022-12-24T16:26:04;5.10;99.90
8557;DHT22;4316;53.840;10.762;2022-12-24T16:28:31;5.20;99.90
8557;DHT22;4316;53.840;10.762;2022-12-24T16:30:57;5.10;99.90
8557;DHT22;4316;53.840;10.762;2022-12-24T16:33:23;5.10;99.90
8557;DHT22;4316;53.840;10.762;2022-12-24T16:35:49;5.10;99.90
8557;DHT22;4316;53.840;10.762;2022-12-24T16:38:15;5.10;99.90
8557;DHT22;4316;53.840;10.762;2022-12-24T16:40:41;5.10;99.90
8557;DHT22;4316;53.840;10.762;2022-12-24T16:43:08;5.10;99.90
8557;DHT22;4316;53.840;10.762;2022-12-24T16:46:00;5.10;99.90
8557;DHT22;4316;53.840;10.762;2022-12-24T16:48:26;5.10;99.90
8557;DHT22;4316;53.840;10.762;2022-12-24T16:50:52;5.10;99.90
8557;DHT22;4316;53.840;10.762;2022-12-24T16:53:19;5.10;99.90
8557;DHT22;4316;53.840;10.762;2022-12-24T16:55:45;5.10;99.90
8557;DHT22;4316;53.840;10.762;2022-12-24T16:58:13;5.10;99.90
8557;DHT22;4316;53.840;10.762;2022-12-24T17:00:40;5.10;99.90
8557;DHT22;4316;53.840;10.762;2022-12-24T17:03:07;5.10;99.90
8557;DHT22;4316;53.840;10.762;2022-12-24T17:05:36;5.10;99.90
8557;DHT22;4316;53.840;10.762;2022-12-24T17:08:01;5.10;99.90
8557;DHT22;4316;53.840;10.762;2022-12-24T17:10:28;5.10;99.90
8557;DHT22;4316;53.840;10.762;2022-12-24T17:12:54;5.20;99.90
8557;DHT22;4316;53.840;10.762;2022-12-24T17:15:21;5.20;99.90
8557;DHT22;4316;53.840;10.762;2022-12-24T17:17:46;5.20;99.90
8557;DHT22;4316;53.840;10.762;2022-12-24T17:20:12;5.20;99.90
8557;DHT22;4316;53.840;10.762;2022-12-24T17:22:38;5.20;99.90
8557;DHT22;4316;53.840;10.762;2022-12-24T17:25:04;5.10;99.90
8557;DHT22;4316;53.840;10.762;2022-12-24T17:27:31;5.10;99.90
8557;DHT22;4316;53.840;10.762;2022-12-24T17:29:57;5.20;99.90
8557;DHT22;4316;53.840;10.762;2022-12-24T17:32:24;5.20;99.90
8557;DHT22;4316;53.840;10.762;2022-12-24T17:34:52;5.20;99.90
8557;DHT22;4316;53.840;10.762;2022-12-24T17:37:17;5.20;99.90
8557;DHT22;4316;53.840;10.762;2022-12-24T17:39:43;5.20;99.90
8557;DHT22;4316;53.840;10.762;2022-12-24T17:42:10;5.20;99.90
8557;DHT22;4316;53.840;10.762;2022-12-24T17:44:35;5.20;99.90
8557;DHT22;4316;53.840;10.762;2022-12-24T17:47:02;5.30;99.90
8557;DHT22;4316;53.840;10.762;2022-12-24T17:49:29;5.20;99.90
8557;DHT22;4316;53.840;10.762;2022-12-24T17:51:56;5.20;99.90
8557;DHT22;4316;53.840;10.762;2022-12-24T17:54:22;5.20;99.90
8557;DHT22;4316;53.840;10.762;2022-12-24T17:56:48;5.20;99.90
8557;DHT22;4316;53.840;10.762;2022-12-24T17:59:14;5.20;99.90
8557;DHT22;4316;53.840;10.762;2022-12-24T18:01:40;5.10;99.90
8557;DHT22;4316;53.840;10.762;2022-12-24T18:04:05;5.20;99.90
8557;DHT22;4316;53.840;10.762;2022-12-24T18:06:31;5.30;99.90
8557;DHT22;4316;53.840;10.762;2022-12-24T18:08:57;5.30;99.90
8557;DHT22;4316;53.840;10.762;2022-12-24T18:11:28;5.30;99.90
8557;DHT22;4316;53.840;10.762;2022-12-24T18:13:56;5.30;99.90
8557;DHT22;4316;53.840;10.762;2022-12-24T18:16:28;5.30;99.90
8557;DHT22;4316;53.840;10.762;2022-12-24T18:18:55;5.40;99.90
8557;DHT22;4316;53.840;10.762;2022-12-24T18:21:24;5.30;99.90